首页
METAR-TAF:

METAR-TAF

机场 :

Rochester International Airport

羅徹斯特, 明尼蘇達州, 美国

纬度: 43-54-15N, 经度: 092-29-30W, 海拔: 401米

当前天气观测

该预报发布于40分钟前的08:04 UTC
风速12节,风向西转西北
温度 6°C
湿度 87%
气压 1016 hPa
能見度: 14.5公里
多云层高于200英尺
多云层高于3900英尺
阴天层高于5500英尺

METAR: KRST 030804Z AUTO 29012KT 9SM BKN002 BKN039 OVC055 06/04 A2999 RMK AO2 WSHFT 0750 T00560039

时间: 03:44 (08:44 UTC)

预报

该预报发布于3小时和19分钟前的05:25 UTC
预报有效从03日的 06点(UTC)到 04日的 06点(UTC)
风速12节,风向南转南东
能見度: 10公里
阴天层高于3500英尺
附近有阵雨
短暂存在
从 03日的 06点(UTC)到 03日的 08点(UTC)
能見度: 9.7公里
阴天层高于2500英尺
小雨
从 03日的 0800点(UTC)
风速11节,风向南转南东,有时为21节阵风
能見度: 10公里
阴天层高于1500英尺
附近有阵雨
从 03日的 1300点(UTC)
风速10节,风向西
能見度: 6.4公里
阴天层高于600英尺
小雨, 轻雾
从 03日的 1700点(UTC)
风速11节,风向西北,有时为19节阵风
能見度: 6.4公里
阴天层高于700英尺
小雨, 轻雾
从 03日的 2200点(UTC)
风速12节,风向西北
能見度: 6.4公里
阴天层高于1000英尺
小雪
从 04日的 0300点(UTC)
风速11节,风向西北
能見度: 10公里
多云层高于4000英尺

TAF: KRST 030525Z 0306/0406 16012KT P6SM VCSH OVC035 TEMPO 0306/0308 6SM -RA OVC025 FM030800 16011G21KT P6SM VCSH OVC015 FM031300 28010KT 4SM -RA BR OVC006 FM031700 31011G19KT 4SM -RA BR OVC007 FM032200 31012KT 4SM -SN OVC010 FM040300 32011KT P6SM BKN040

超过4000个机场的气象观测和天气预报(METAR&TAF报告)。

可查询的气象台以黄色和红色小点在地图上表示。

将鼠标移到小点上方,可查看气象台名称。

然后点击查看天气观测和预报。

如需切换地图:点击带黑十字的绿色按钮放大地图;点击带横线的绿色按钮缩小地图;或者点击绿色箭头查看邻近地区的地图。


METAR-TAF: